»·PEaware :: AAL224 KSFO-KSNA

AAL224 :: KSFO-KSNA

FLIGHT INFORMATION

Flight Status: Arrived
Operator:
American Airlines
More flights by this operator :: More flights under this callsign
Pilot: Matteo S. (9898)
Aircraft: AIRBUS A321
(A321)
More flights by this aircraft type
Origin: KSFO San Francisco Intl
United States
Destination: KSNA John Wayne-Orange Co
United States
More flights between these airports :: More routes between these airports
Route: +OFFSH1 SXC SLI
File this flight plan on PilotEdge
Remarks:
Altitude:
(Current/Filed)
33,000ft
Speed:
(Current/Filed)
450kts
Departed: 28-Nov-16 10:15 AM
Arrived: 28-Nov-16 11:20 AM
Distance/Time
Traveled:
323nm/1:05
Distance/Time
To Go:
Arrived

Flight Plot

Page will automatically refresh every two minutes.


Map Options




Map Legend


Flown Route
Filed Route
Departure Airport
Arrival Airport
Navaid (VOR, NDB)
Fix

Horizontal Profiles

Position Reports

Time Latitude Longitude Heading Altitude Ground
Speed
28-Nov-16 09:44 37.614578 -122.383174 26 27ft 0kts
28-Nov-16 09:45 37.614578 -122.383174 26 27ft 0kts
28-Nov-16 09:46 37.614578 -122.383174 26 27ft 0kts
28-Nov-16 09:47 37.614578 -122.383174 26 27ft 0kts
28-Nov-16 09:48 37.614578 -122.383174 26 27ft 0kts
28-Nov-16 09:49 37.614578 -122.383174 26 27ft 0kts
28-Nov-16 09:50 37.614578 -122.383174 26 27ft 0kts
28-Nov-16 09:51 37.614578 -122.383174 26 27ft 0kts
28-Nov-16 09:52 37.614578 -122.383174 26 27ft 0kts
28-Nov-16 09:53 37.614578 -122.383174 26 27ft 0kts
28-Nov-16 09:54 37.614578 -122.383174 26 27ft 0kts
28-Nov-16 09:55 37.614578 -122.383174 26 27ft 0kts
28-Nov-16 09:56 37.614578 -122.383174 26 27ft 0kts
28-Nov-16 09:57 37.614578 -122.383174 26 27ft 0kts
28-Nov-16 09:58 37.614576 -122.383176 26 27ft 0kts
28-Nov-16 09:59 37.613940 -122.383580 26 27ft 2kts
28-Nov-16 10:00 37.613750 -122.383701 26 27ft 0kts
28-Nov-16 10:01 37.613801 -122.383663 33 27ft 2kts
28-Nov-16 10:02 37.613689 -122.382759 119 27ft 0kts
28-Nov-16 10:03 37.613689 -122.382758 119 27ft 0kts
28-Nov-16 10:04 37.613554 -122.382455 119 27ft 6kts
28-Nov-16 10:05 37.610246 -122.383926 210 27ft 15kts
28-Nov-16 10:06 37.608470 -122.383812 116 27ft 1kts
28-Nov-16 10:07 37.608315 -122.382711 45 27ft 7kts
28-Nov-16 10:08 37.620576 -122.374507 24 28ft 144kts
28-Nov-16 10:11 37.723184 -122.463653 229 4998ft 268kts
28-Nov-16 10:12 37.651659 -122.490892 222 4998ft 271kts
28-Nov-16 10:13 37.619852 -122.575585 246 8290ft 276kts
28-Nov-16 10:14 37.575749 -122.661484 244 11784ft 312kts
28-Nov-16 10:15 37.499707 -122.714031 177 15872ft 369kts
28-Nov-16 10:16 37.392008 -122.685487 171 18429ft 411kts
28-Nov-16 10:17 37.277726 -122.654858 172 19005ft 419kts
28-Nov-16 10:18 37.162479 -122.624375 172 20762ft 428kts
28-Nov-16 10:19 37.043691 -122.593141 172 23438ft 445kts
28-Nov-16 10:20 36.920220 -122.560870 172 25744ft 459kts
28-Nov-16 10:21 36.793272 -122.527908 172 27774ft 471kts
28-Nov-16 10:22 36.663418 -122.494239 172 29545ft 480kts
28-Nov-16 10:23 36.531001 -122.460008 172 31056ft 489kts
28-Nov-16 10:24 36.403159 -122.401080 141 32524ft 503kts
28-Nov-16 10:25 36.308936 -122.269134 128 33145ft 522kts
28-Nov-16 10:26 36.214402 -122.130001 128 33154ft 527kts
28-Nov-16 10:27 36.119474 -121.991313 128 33152ft 527kts
28-Nov-16 10:28 36.035992 -121.870009 129 33149ft 527kts
28-Nov-16 10:30 35.833629 -121.578084 129 33141ft 527kts
28-Nov-16 10:31 35.737722 -121.440709 129 33131ft 528kts
28-Nov-16 10:32 35.641652 -121.303623 129 33118ft 528kts
28-Nov-16 10:33 35.545257 -121.166675 129 33113ft 529kts
28-Nov-16 10:34 35.437168 -121.043839 145 33108ft 531kts
28-Nov-16 10:35 35.312488 -120.946263 148 33106ft 530kts
28-Nov-16 10:36 35.187753 -120.849053 148 33110ft 530kts
28-Nov-16 10:37 35.063635 -120.752089 148 33111ft 529kts
28-Nov-16 10:38 34.939321 -120.655015 148 33115ft 529kts
28-Nov-16 10:39 34.815050 -120.558196 148 33107ft 528kts
28-Nov-16 10:40 34.690908 -120.461743 148 33100ft 528kts
28-Nov-16 10:41 34.566841 -120.365647 148 33096ft 528kts
28-Nov-16 10:42 34.442703 -120.269816 148 33081ft 527kts
28-Nov-16 10:43 34.318824 -120.174477 147 33062ft 527kts
28-Nov-16 10:44 34.217570 -120.049195 119 33055ft 521kts
28-Nov-16 10:45 34.142046 -119.900329 117 33051ft 520kts
28-Nov-16 10:46 34.066477 -119.750946 117 33052ft 521kts
28-Nov-16 10:47 33.990586 -119.601574 117 33059ft 521kts
28-Nov-16 10:48 33.914803 -119.452927 118 31400ft 516kts
28-Nov-16 10:49 33.840183 -119.307210 118 29572ft 504kts
28-Nov-16 10:50 33.767426 -119.165825 119 27460ft 488kts
28-Nov-16 10:51 33.696772 -119.028990 119 25431ft 474kts
28-Nov-16 10:52 33.627836 -118.896014 119 23424ft 461kts
28-Nov-16 10:53 33.560279 -118.767660 120 21342ft 449kts
28-Nov-16 10:54 33.493931 -118.642902 120 19135ft 437kts
28-Nov-16 10:55 33.429626 -118.521725 121 16929ft 424kts
28-Nov-16 10:56 33.416400 -118.395279 53 14715ft 368kts
28-Nov-16 10:57 33.487388 -118.319963 27 12518ft 333kts
28-Nov-16 10:58 33.560558 -118.254910 29 10319ft 323kts
28-Nov-16 10:59 33.629451 -118.193342 32 8303ft 296kts
28-Nov-16 11:00 33.694761 -118.133137 43 6280ft 290kts
28-Nov-16 11:01 33.739941 -118.058310 52 5008ft 260kts
28-Nov-16 11:02 33.782278 -117.987820 52 4261ft 261kts
28-Nov-16 11:03 33.824044 -117.920801 52 3989ft 235kts
28-Nov-16 11:04 33.863213 -117.858302 52 3969ft 233kts
28-Nov-16 11:05 33.902317 -117.795975 52 3958ft 232kts
28-Nov-16 11:06 33.920624 -117.727468 121 3967ft 228kts
28-Nov-16 11:07 33.872629 -117.732902 222 3971ft 199kts
28-Nov-16 11:08 33.838334 -117.764062 211 3066ft 209kts
28-Nov-16 11:10 33.736741 -117.830127 207 1297ft 152kts
28-Nov-16 11:11 33.700704 -117.852988 207 509ft 143kts
28-Nov-16 11:12 33.673311 -117.870342 207 70ft 70kts
28-Nov-16 11:13 33.669733 -117.870258 40 70ft 14kts
28-Nov-16 11:14 33.671874 -117.868298 29 70ft 1kts
28-Nov-16 11:15 33.672948 -117.867458 43 70ft 10kts
28-Nov-16 11:16 33.675865 -117.865047 107 70ft 7kts
28-Nov-16 11:17 33.675703 -117.864653 117 70ft 0kts
28-Nov-16 11:18 33.675703 -117.864653 117 70ft 0kts
28-Nov-16 11:19 33.675703 -117.864653 117 70ft 0kts

Navigation Log

Ident Type
Flight plan parsing failed, navigation log unavailable